createdAt,value
2016-09-26T00:00:49.596Z,16.42
2016-09-26T00:01:49.584Z,16.44
2016-09-26T00:02:49.575Z,16.45
2016-09-26T00:03:49.568Z,16.44
2016-09-26T00:04:49.569Z,16.45
2016-09-26T00:05:49.865Z,16.45
2016-09-26T00:06:49.535Z,16.48
2016-09-26T00:07:49.523Z,16.41
2016-09-26T00:08:49.522Z,16.45
2016-09-26T00:09:49.513Z,16.41
2016-09-26T00:10:49.820Z,16.38
2016-09-26T00:11:49.489Z,16.37
2016-09-26T00:12:49.476Z,16.34
2016-09-26T00:13:49.673Z,16.25
2016-09-26T00:14:49.459Z,16.38
2016-09-26T00:15:49.451Z,16.34
2016-09-26T00:16:49.447Z,16.26
2016-09-26T00:17:49.427Z,16.27
2016-09-26T00:18:49.419Z,16.22
2016-09-26T00:19:49.741Z,16.18
2016-09-26T00:20:49.397Z,16.2
2016-09-26T00:21:49.397Z,16.15
2016-09-26T00:22:49.388Z,16.23
2016-09-26T00:23:49.371Z,16.15
2016-09-26T00:24:49.361Z,16.15
2016-09-26T00:25:49.361Z,16.09
2016-09-26T00:26:49.658Z,16.15
2016-09-26T00:27:49.333Z,16.11
2016-09-26T00:28:49.637Z,16.18
2016-09-26T00:29:49.942Z,16.15
2016-09-26T00:30:49.300Z,16.12
2016-09-26T00:31:49.295Z,16.15
2016-09-26T00:32:49.592Z,16.12
2016-09-26T00:33:49.893Z,16.11
2016-09-26T00:34:49.264Z,16.16
2016-09-26T00:35:49.256Z,16.11
2016-09-26T00:36:49.243Z,16.15
2016-09-26T00:37:49.238Z,16.18
2016-09-26T00:38:49.224Z,16.16
2016-09-26T00:39:49.214Z,16.16
2016-09-26T00:40:49.202Z,16.25
2016-09-26T00:41:49.196Z,16.3
2016-09-26T00:42:49.189Z,16.23
2016-09-26T00:43:49.181Z,16.15
2016-09-26T00:44:49.364Z,16.2
2016-09-26T00:45:49.160Z,16.18
2016-09-26T00:46:49.142Z,16.22
2016-09-26T00:47:49.140Z,16.2
2016-09-26T00:48:49.749Z,16.25
2016-09-26T00:49:49.118Z,16.22
2016-09-26T00:50:49.418Z,16.18
2016-09-26T00:51:49.411Z,16.16
2016-09-26T00:52:49.086Z,16.22
2016-09-26T00:53:49.078Z,16.25
2016-09-26T00:54:49.061Z,16.3
2016-09-26T00:55:49.057Z,16.25
2016-09-26T00:56:49.047Z,16.23
2016-09-26T00:57:49.037Z,16.25
2016-09-26T00:58:49.653Z,16.25
2016-09-26T00:59:49.331Z,16.26
2016-09-26T01:00:49.011Z,16.26
2016-09-26T01:01:49.001Z,16.27
2016-09-26T01:02:48.985Z,16.31
2016-09-26T01:03:49.290Z,16.27
2016-09-26T01:04:48.968Z,16.27
2016-09-26T01:05:49.270Z,16.31
2016-09-26T01:06:48.956Z,16.26
2016-09-26T01:07:48.933Z,16.27
2016-09-26T01:08:48.935Z,16.27
2016-09-26T01:09:49.237Z,16.33
2016-09-26T01:10:48.910Z,16.34
2016-09-26T01:11:48.901Z,16.37
2016-09-26T01:12:48.890Z,16.26
2016-09-26T01:13:48.884Z,16.3
2016-09-26T01:14:48.870Z,16.27
2016-09-26T01:15:48.859Z,16.25
2016-09-26T01:16:48.851Z,16.3
2016-09-26T01:17:48.869Z,16.26
2016-09-26T01:18:48.839Z,16.27
2016-09-26T01:19:49.137Z,16.26
2016-09-26T01:20:49.124Z,16.31
2016-09-26T01:21:48.802Z,16.31
2016-09-26T01:22:48.812Z,16.27
2016-09-26T01:23:48.799Z,16.25
2016-09-26T01:24:48.773Z,16.25
2016-09-26T01:25:48.766Z,16.26
2016-09-26T01:26:48.755Z,16.23
2016-09-26T01:27:49.059Z,16.22
2016-09-26T01:28:48.732Z,16.22
2016-09-26T01:29:48.732Z,16.23
2016-09-26T01:30:48.711Z,16.16
2016-09-26T01:31:48.716Z,16.18
2016-09-26T01:32:48.693Z,16.18
2016-09-26T01:33:48.703Z,16.18
2016-09-26T01:34:48.675Z,16.2
2016-09-26T01:35:48.666Z,16.18
2016-09-26T01:36:48.971Z,16.22
2016-09-26T01:37:48.655Z,16.22
2016-09-26T01:38:48.637Z,16.18
2016-09-26T01:39:48.655Z,16.22
2016-09-26T01:40:48.618Z,16.18
2016-09-26T01:41:48.919Z,16.15
2016-09-26T01:42:48.599Z,16.15
2016-09-26T01:43:49.206Z,16.14
2016-09-26T01:44:48.890Z,16.11
2016-09-26T01:45:48.898Z,16.12
2016-09-26T01:46:48.870Z,16.15
2016-09-26T01:47:48.549Z,16.11
2016-09-26T01:48:48.545Z,16.15
2016-09-26T01:49:48.531Z,16.11
2016-09-26T01:50:48.519Z,16.14
2016-09-26T01:51:48.508Z,16.14
2016-09-26T01:52:48.499Z,16.12
2016-09-26T01:53:48.494Z,16.03
2016-09-26T01:54:48.484Z,16.09
2016-09-26T01:55:48.520Z,16.16
2016-09-26T01:56:48.461Z,16.14
2016-09-26T01:57:48.450Z,16.11
2016-09-26T01:58:48.503Z,16.12
2016-09-26T01:59:48.430Z,16.2
2016-09-26T02:00:48.422Z,16.07
2016-09-26T02:01:48.415Z,16.11
2016-09-26T02:02:48.402Z,16.12
2016-09-26T02:03:48.400Z,16.07
2016-09-26T02:04:48.380Z,16.12
2016-09-26T02:05:48.712Z,16.06
2016-09-26T02:06:48.674Z,16.03
2016-09-26T02:07:48.365Z,16.04
2016-09-26T02:08:48.345Z,15.96
2016-09-26T02:09:48.333Z,16.01
2016-09-26T02:10:48.321Z,16.03
2016-09-26T02:11:48.314Z,16.04
2016-09-26T02:12:48.615Z,16.07
2016-09-26T02:13:48.922Z,16.04
2016-09-26T02:14:48.285Z,16.07
2016-09-26T02:15:48.279Z,16.07
2016-09-26T02:16:48.263Z,16.09
2016-09-26T02:17:48.252Z,16.12
2016-09-26T02:18:48.243Z,16.11
2016-09-26T02:19:48.237Z,16.04
2016-09-26T02:20:48.851Z,16.11
2016-09-26T02:21:48.213Z,15.99
2016-09-26T02:22:48.205Z,16.11
2016-09-26T02:23:48.200Z,16.06
2016-09-26T02:24:48.189Z,16.04
2016-09-26T02:25:48.177Z,16.03
2016-09-26T02:26:48.478Z,16.04
2016-09-26T02:27:48.159Z,16.04
2016-09-26T02:28:48.149Z,16
2016-09-26T02:29:48.144Z,15.97
2016-09-26T02:30:48.128Z,16
2016-09-26T02:31:48.119Z,16.04
2016-09-26T02:32:48.413Z,16
2016-09-26T02:33:48.415Z,16
2016-09-26T02:34:48.405Z,16
2016-09-26T02:35:48.394Z,16.03
2016-09-26T02:36:48.067Z,15.99
2016-09-26T02:37:48.580Z,16
2016-09-26T02:38:48.047Z,16.04
2016-09-26T02:39:48.039Z,16.07
2016-09-26T02:40:48.340Z,16.03
2016-09-26T02:41:48.339Z,15.96
2016-09-26T02:42:48.340Z,16
2016-09-26T02:43:47.996Z,15.94
2016-09-26T02:44:48.195Z,16.01
2016-09-26T02:45:48.292Z,16
2016-09-26T02:46:47.967Z,16.04
2016-09-26T02:47:47.960Z,15.94
2016-09-26T02:48:47.962Z,16
2016-09-26T02:49:48.256Z,15.97
2016-09-26T02:50:47.933Z,15.96
2016-09-26T02:51:47.932Z,16.01
2016-09-26T02:52:47.915Z,16
2016-09-26T02:53:47.918Z,16.04
2016-09-26T02:54:47.891Z,15.92
2016-09-26T02:55:47.938Z,15.94
2016-09-26T02:56:47.884Z,16.06
2016-09-26T02:57:48.229Z,15.96
2016-09-26T02:58:48.214Z,15.96
2016-09-26T02:59:47.852Z,15.93
2016-09-26T03:00:48.463Z,15.93
2016-09-26T03:01:47.828Z,15.93
2016-09-26T03:02:47.826Z,15.94
2016-09-26T03:03:47.827Z,15.99
2016-09-26T03:04:47.787Z,16.01
2016-09-26T03:05:47.801Z,16
2016-09-26T03:06:47.777Z,15.94
2016-09-26T03:07:47.760Z,15.97
2016-09-26T03:08:47.751Z,16.04
2016-09-26T03:09:48.053Z,16
2016-09-26T03:10:47.732Z,15.92
2016-09-26T03:11:47.728Z,15.96
2016-09-26T03:12:48.029Z,16.04
2016-09-26T03:13:47.706Z,16.06
2016-09-26T03:14:47.693Z,16.06
2016-09-26T03:15:47.681Z,16
2016-09-26T03:16:47.679Z,15.97
2016-09-26T03:17:47.980Z,16.04
2016-09-26T03:18:47.655Z,15.93
2016-09-26T03:19:47.642Z,15.93
2016-09-26T03:20:47.634Z,16.01
2016-09-26T03:21:47.975Z,15.94
2016-09-26T03:22:47.620Z,16.04
2016-09-26T03:23:47.600Z,16
2016-09-26T03:24:47.593Z,15.97
2016-09-26T03:25:47.585Z,15.96
2016-09-26T03:26:47.577Z,15.89
2016-09-26T03:27:47.569Z,15.89
2016-09-26T03:28:47.551Z,15.89
2016-09-26T03:29:47.553Z,15.88
2016-09-26T03:30:47.868Z,15.94
2016-09-26T03:31:47.854Z,15.92
2016-09-26T03:32:47.522Z,15.86
2016-09-26T03:33:47.832Z,15.92
2016-09-26T03:34:47.513Z,15.88
2016-09-26T03:35:47.802Z,15.88
2016-09-26T03:36:47.786Z,15.94
2016-09-26T03:37:47.467Z,15.93
2016-09-26T03:38:47.446Z,15.86
2016-09-26T03:39:48.083Z,15.89
2016-09-26T03:40:47.435Z,15.85
2016-09-26T03:41:47.737Z,15.86
2016-09-26T03:42:47.408Z,15.84
2016-09-26T03:43:47.407Z,15.81
2016-09-26T03:44:47.400Z,15.85
2016-09-26T03:45:47.381Z,15.84
2016-09-26T03:46:47.374Z,15.82
2016-09-26T03:47:47.360Z,15.85
2016-09-26T03:48:47.360Z,15.88
2016-09-26T03:49:47.345Z,15.79
2016-09-26T03:50:47.958Z,15.82
2016-09-26T03:51:47.325Z,15.81
2016-09-26T03:52:47.324Z,15.88
2016-09-26T03:53:47.301Z,15.79
2016-09-26T03:54:47.613Z,15.88
2016-09-26T03:55:47.287Z,15.84
2016-09-26T03:56:47.297Z,15.76
2016-09-26T03:57:47.267Z,15.82
2016-09-26T03:58:47.569Z,15.78
2016-09-26T03:59:47.246Z,15.78
2016-09-26T04:00:47.295Z,15.76
2016-09-26T04:01:47.548Z,15.78
2016-09-26T04:02:47.221Z,15.78
2016-09-26T04:03:47.522Z,15.79
2016-09-26T04:04:47.515Z,15.84
2016-09-26T04:05:47.496Z,15.72
2016-09-26T04:06:47.488Z,15.68
2016-09-26T04:07:47.158Z,15.66
2016-09-26T04:08:47.153Z,15.76
2016-09-26T04:09:47.142Z,15.72
2016-09-26T04:10:47.447Z,15.7
2016-09-26T04:11:47.128Z,15.72
2016-09-26T04:12:47.113Z,15.63
2016-09-26T04:13:47.100Z,15.78
2016-09-26T04:14:47.092Z,15.63
2016-09-26T04:15:47.089Z,15.7
2016-09-26T04:16:47.072Z,15.67
2016-09-26T04:17:47.105Z,15.64
2016-09-26T04:18:47.368Z,15.63
2016-09-26T04:19:47.043Z,15.68
2016-09-26T04:20:47.034Z,15.59
2016-09-26T04:21:47.022Z,15.59
2016-09-26T04:22:47.012Z,15.64
2016-09-26T04:23:47.005Z,15.54
2016-09-26T04:24:46.987Z,15.56
2016-09-26T04:25:46.982Z,15.49
2016-09-26T04:26:46.973Z,15.61
2016-09-26T04:27:47.269Z,15.54
2016-09-26T04:28:46.956Z,15.52
2016-09-26T04:29:47.252Z,15.43
2016-09-26T04:30:46.925Z,15.52
2016-09-26T04:31:46.918Z,15.52
2016-09-26T04:32:47.533Z,15.49
2016-09-26T04:33:46.893Z,15.48
2016-09-26T04:34:46.886Z,15.48
2016-09-26T04:35:46.876Z,15.46
2016-09-26T04:36:47.177Z,15.46
2016-09-26T04:37:46.860Z,15.33
2016-09-26T04:38:47.161Z,15.43
2016-09-26T04:39:46.836Z,15.41
2016-09-26T04:40:46.832Z,15.35
2016-09-26T04:41:47.130Z,15.36
2016-09-26T04:42:46.806Z,15.28
2016-09-26T04:43:46.841Z,15.24
2016-09-26T04:44:47.320Z,15.24
2016-09-26T04:45:46.785Z,15.24
2016-09-26T04:46:47.078Z,15.21
2016-09-26T04:47:46.752Z,15.13
2016-09-26T04:48:46.749Z,15.13
2016-09-26T04:49:46.737Z,15.13
2016-09-26T04:50:46.722Z,15.15
2016-09-26T04:51:46.714Z,15.09
2016-09-26T04:52:46.699Z,15.09
2016-09-26T04:53:46.687Z,15.05
2016-09-26T04:54:46.682Z,15.05
2016-09-26T04:55:46.984Z,15.03
2016-09-26T04:56:46.970Z,15.02
2016-09-26T04:57:46.973Z,15.05
2016-09-26T04:58:46.640Z,14.95
2016-09-26T04:59:46.628Z,14.94
2016-09-26T05:00:46.619Z,14.81
2016-09-26T05:01:46.606Z,14.86
2016-09-26T05:02:46.597Z,14.81
2016-09-26T05:03:46.605Z,14.8
2016-09-26T05:04:46.893Z,14.69
2016-09-26T05:05:46.886Z,14.75
2016-09-26T05:06:46.557Z,14.68
2016-09-26T05:07:46.538Z,14.67
2016-09-26T05:08:46.536Z,14.57
2016-09-26T05:09:46.515Z,14.57
2016-09-26T05:10:46.823Z,14.52
2016-09-26T05:11:46.499Z,14.49
2016-09-26T05:12:46.492Z,14.47
2016-09-26T05:13:46.478Z,14.47
2016-09-26T05:14:46.475Z,14.47
2016-09-26T05:15:46.463Z,14.42
2016-09-26T05:16:46.447Z,14.44
2016-09-26T05:17:46.439Z,14.43
2016-09-26T05:18:46.423Z,14.37
2016-09-26T05:19:46.416Z,14.35
2016-09-26T05:20:46.404Z,14.42
2016-09-26T05:21:46.388Z,14.29
2016-09-26T05:22:46.385Z,14.31
2016-09-26T05:23:46.368Z,14.28
2016-09-26T05:24:46.358Z,14.25
2016-09-26T05:25:46.349Z,14.27
2016-09-26T05:26:46.340Z,14.28
2016-09-26T05:27:46.324Z,14.29
2016-09-26T05:28:46.318Z,14.16
2016-09-26T05:29:46.619Z,14.13
2016-09-26T05:30:46.300Z,14.12
2016-09-26T05:31:46.284Z,14.13
2016-09-26T05:32:46.585Z,14.13
2016-09-26T05:33:46.278Z,14.13
2016-09-26T05:34:46.564Z,14.09
2016-09-26T05:35:46.556Z,14.13
2016-09-26T05:36:46.234Z,14.12
2016-09-26T05:37:46.539Z,14.04
2016-09-26T05:38:46.208Z,14.12
2016-09-26T05:39:46.513Z,14.06
2016-09-26T05:40:46.498Z,14.02
2016-09-26T05:41:46.172Z,14.1
2016-09-26T05:42:46.161Z,13.94
2016-09-26T05:43:46.776Z,14.01
2016-09-26T05:44:46.178Z,13.99
2016-09-26T05:45:46.145Z,13.98
2016-09-26T05:46:46.125Z,13.92
2016-09-26T05:47:46.120Z,13.92
2016-09-26T05:48:46.423Z,13.84
2016-09-26T05:49:46.085Z,13.95
2016-09-26T05:50:46.079Z,13.92
2016-09-26T05:51:46.377Z,13.87
2016-09-26T05:52:46.366Z,13.88
2016-09-26T05:53:46.359Z,13.81
2016-09-26T05:54:46.032Z,13.8
2016-09-26T05:55:46.336Z,13.91
2016-09-26T05:56:46.322Z,13.81
2016-09-26T05:57:45.997Z,13.87
2016-09-26T05:58:45.991Z,13.83
2016-09-26T05:59:45.971Z,13.81
2016-09-26T06:00:45.963Z,13.81
2016-09-26T06:01:46.267Z,13.77
2016-09-26T06:02:45.940Z,13.79
2016-09-26T06:03:45.928Z,13.87
2016-09-26T06:04:45.916Z,13.8
2016-09-26T06:05:45.906Z,13.83
2016-09-26T06:06:45.893Z,13.8
2016-09-26T06:07:45.878Z,13.81
2016-09-26T06:08:45.872Z,13.77
2016-09-26T06:09:45.859Z,13.87
2016-09-26T06:10:45.854Z,13.88
2016-09-26T06:11:45.842Z,13.8
2016-09-26T06:12:45.829Z,13.87
2016-09-26T06:13:45.819Z,13.79
2016-09-26T06:14:45.806Z,13.81
2016-09-26T06:15:45.803Z,13.77
2016-09-26T06:16:45.784Z,13.77
2016-09-26T06:17:45.774Z,13.87
2016-09-26T06:18:46.088Z,13.8
2016-09-26T06:19:45.746Z,13.79
2016-09-26T06:20:45.736Z,13.79
2016-09-26T06:21:45.729Z,13.91
2016-09-26T06:22:46.023Z,13.84
2016-09-26T06:23:46.023Z,13.84
2016-09-26T06:24:45.705Z,13.81
2016-09-26T06:25:45.684Z,13.79
2016-09-26T06:26:45.693Z,13.91
2016-09-26T06:27:45.687Z,13.91
2016-09-26T06:28:45.980Z,13.92
2016-09-26T06:29:45.645Z,13.96
2016-09-26T06:30:45.628Z,13.96
2016-09-26T06:31:45.936Z,13.89
2016-09-26T06:32:45.604Z,13.96
2016-09-26T06:33:45.911Z,13.96
2016-09-26T06:34:45.584Z,13.95
2016-09-26T06:35:45.566Z,13.98
2016-09-26T06:36:45.562Z,13.99
2016-09-26T06:37:45.547Z,13.91
2016-09-26T06:38:45.532Z,13.96
2016-09-26T06:39:45.539Z,13.99
2016-09-26T06:40:45.511Z,14.04
2016-09-26T06:41:45.549Z,14.02
2016-09-26T06:42:45.495Z,14.12
2016-09-26T06:43:45.478Z,14.1
2016-09-26T06:44:45.665Z,14.1
2016-09-26T06:45:45.460Z,14.13
2016-09-26T06:46:45.443Z,14.19
2016-09-26T06:47:45.744Z,14.13
2016-09-26T06:48:45.424Z,14.17
2016-09-26T06:49:45.410Z,14.12
2016-09-26T06:50:45.397Z,14.19
2016-09-26T06:51:45.393Z,14.16
2016-09-26T06:52:45.378Z,14.14
2016-09-26T06:53:45.685Z,14.17
2016-09-26T06:54:45.357Z,14.19
2016-09-26T06:55:45.342Z,14.29
2016-09-26T06:56:45.334Z,14.24
2016-09-26T06:57:45.640Z,14.24
2016-09-26T06:58:45.310Z,14.25
2016-09-26T06:59:45.296Z,14.28
2016-09-26T07:00:45.290Z,14.37
2016-09-26T07:01:45.279Z,14.37
2016-09-26T07:02:45.265Z,14.32
2016-09-26T07:03:45.261Z,14.38
2016-09-26T07:04:45.558Z,14.44
2016-09-26T07:05:45.232Z,14.49
2016-09-26T07:06:45.223Z,14.47
2016-09-26T07:07:45.209Z,14.49
2016-09-26T07:08:45.201Z,14.47
2016-09-26T07:09:45.508Z,14.53
2016-09-26T07:10:45.177Z,14.42
2016-09-26T07:11:45.180Z,14.52
2016-09-26T07:12:45.156Z,14.5
2016-09-26T07:13:45.146Z,14.54
2016-09-26T07:14:45.135Z,14.49
2016-09-26T07:15:45.122Z,14.61
2016-09-26T07:16:45.111Z,14.54
2016-09-26T07:17:45.101Z,14.62
2016-09-26T07:18:45.090Z,14.65
2016-09-26T07:19:45.087Z,14.65
2016-09-26T07:20:45.071Z,14.64
2016-09-26T07:21:45.060Z,14.68
2016-09-26T07:22:45.045Z,14.75
2016-09-26T07:23:45.044Z,14.74
2016-09-26T07:24:45.346Z,14.72
2016-09-26T07:25:45.014Z,14.8
2016-09-26T07:26:45.013Z,14.86
2016-09-26T07:27:45.312Z,14.87
2016-09-26T07:28:44.989Z,14.95
2016-09-26T07:29:44.968Z,14.91
2016-09-26T07:30:44.956Z,14.9
2016-09-26T07:31:45.265Z,14.93
2016-09-26T07:32:44.945Z,14.95
2016-09-26T07:33:44.923Z,14.98
2016-09-26T07:34:44.916Z,14.99
2016-09-26T07:35:44.904Z,15.02
2016-09-26T07:36:44.896Z,15.01
2016-09-26T07:37:44.883Z,15.01
2016-09-26T07:38:45.189Z,14.99
2016-09-26T07:39:44.865Z,14.99
2016-09-26T07:40:44.857Z,14.99
2016-09-26T07:41:45.156Z,15.11
2016-09-26T07:42:44.837Z,15.08
2016-09-26T07:43:44.821Z,15.05
2016-09-26T07:44:44.805Z,15.11
2016-09-26T07:45:44.800Z,15.12
2016-09-26T07:46:44.789Z,15.12
2016-09-26T07:47:44.775Z,15.11
2016-09-26T07:48:44.766Z,15.17
2016-09-26T07:49:44.754Z,15.17
2016-09-26T07:50:44.753Z,15.23
2016-09-26T07:51:45.050Z,15.27
2016-09-26T07:52:45.037Z,15.23
2016-09-26T07:53:44.713Z,15.26
2016-09-26T07:54:44.703Z,15.24
2016-09-26T07:55:44.698Z,15.33
2016-09-26T07:56:44.686Z,15.24
2016-09-26T07:57:44.982Z,15.39
2016-09-26T07:58:44.667Z,15.33
2016-09-26T07:59:44.660Z,15.41
2016-09-26T08:00:44.640Z,15.39
2016-09-26T08:01:44.625Z,15.36
2016-09-26T08:02:44.624Z,15.48
2016-09-26T08:03:44.612Z,15.46
2016-09-26T08:04:44.604Z,15.43
2016-09-26T08:05:44.589Z,15.56
2016-09-26T08:06:44.574Z,15.46
2016-09-26T08:07:44.875Z,15.54
2016-09-26T08:08:44.560Z,15.48
2016-09-26T08:09:44.860Z,15.57
2016-09-26T08:10:44.858Z,15.57
2016-09-26T08:11:44.542Z,15.56
2016-09-26T08:12:44.519Z,15.63
2016-09-26T08:13:44.821Z,15.64
2016-09-26T08:14:44.496Z,15.67
2016-09-26T08:15:44.491Z,15.61
2016-09-26T08:16:44.479Z,15.72
2016-09-26T08:17:44.464Z,15.84
2016-09-26T08:18:44.451Z,15.92
2016-09-26T08:19:44.449Z,15.93
2016-09-26T08:20:44.750Z,15.88
2016-09-26T08:21:44.734Z,15.94
2016-09-26T08:22:44.419Z,15.96
2016-09-26T08:23:44.407Z,15.88
2016-09-26T08:24:44.412Z,15.92
2016-09-26T08:25:44.384Z,15.89
2016-09-26T08:26:44.374Z,15.96
2016-09-26T08:27:44.367Z,16
2016-09-26T08:28:44.355Z,16
2016-09-26T08:29:44.656Z,16.01
2016-09-26T08:30:44.338Z,15.97
2016-09-26T08:31:44.328Z,16
2016-09-26T08:32:44.317Z,16.01
2016-09-26T08:33:44.305Z,15.97
2016-09-26T08:34:44.297Z,16.04
2016-09-26T08:35:44.281Z,16.04
2016-09-26T08:36:44.905Z,16
2016-09-26T08:37:44.261Z,16.04
2016-09-26T08:38:44.260Z,16.01
2016-09-26T08:39:44.244Z,16.01
2016-09-26T08:40:44.237Z,16.03
2016-09-26T08:41:44.236Z,16.11
2016-09-26T08:42:44.214Z,16.14
2016-09-26T08:43:44.207Z,16.14
2016-09-26T08:44:44.401Z,16.2
2016-09-26T08:45:44.189Z,16.25
2016-09-26T08:46:44.493Z,16.3
2016-09-26T08:47:44.489Z,16.31
2016-09-26T08:48:44.154Z,16.33
2016-09-26T08:49:44.162Z,16.31
2016-09-26T08:50:44.789Z,16.35
2016-09-26T08:51:44.454Z,16.49
2016-09-26T08:52:44.433Z,16.49
2016-09-26T08:53:44.420Z,16.42
2016-09-26T08:54:44.100Z,16.5
2016-09-26T08:55:44.085Z,16.55
2016-09-26T08:56:44.399Z,16.56
2016-09-26T08:57:44.070Z,16.62
2016-09-26T08:58:44.372Z,16.71
2016-09-26T08:59:44.434Z,16.71
2016-09-26T09:00:44.360Z,16.73
2016-09-26T09:01:44.032Z,16.71
2016-09-26T09:02:44.336Z,16.71
2016-09-26T09:03:44.019Z,16.68
2016-09-26T09:04:44.001Z,16.71
2016-09-26T09:05:44.007Z,16.78
2016-09-26T09:06:44.297Z,16.8
2016-09-26T09:07:43.971Z,16.78
2016-09-26T09:08:43.963Z,16.75
2016-09-26T09:09:43.956Z,16.83
2016-09-26T09:10:43.947Z,16.89
2016-09-26T09:11:44.562Z,16.78
2016-09-26T09:12:43.930Z,16.65
2016-09-26T09:13:43.916Z,16.71
2016-09-26T09:14:43.906Z,16.73
2016-09-26T09:15:44.208Z,16.75
2016-09-26T09:16:43.889Z,16.83
2016-09-26T09:17:43.875Z,16.83
2016-09-26T09:18:43.870Z,16.86
2016-09-26T09:19:43.859Z,16.85
2016-09-26T09:20:43.849Z,16.85
2016-09-26T09:21:43.839Z,16.98
2016-09-26T09:22:43.832Z,16.88
2016-09-26T09:23:43.821Z,16.98
2016-09-26T09:24:43.815Z,17.06
2016-09-26T09:25:43.803Z,17.08
2016-09-26T09:26:43.794Z,17.14
2016-09-26T09:27:44.100Z,17.1
2016-09-26T09:28:43.788Z,17.13
2016-09-26T09:29:44.075Z,17.14
2016-09-26T09:30:43.767Z,17.2
2016-09-26T09:31:43.759Z,17.22
2016-09-26T09:32:44.214Z,17.25
2016-09-26T09:33:43.731Z,17.26
2016-09-26T09:34:43.724Z,17.32
2016-09-26T09:35:43.709Z,17.36
2016-09-26T09:36:43.702Z,17.36
2016-09-26T09:37:43.697Z,17.43
2016-09-26T09:38:43.783Z,17.51
2016-09-26T09:39:43.679Z,17.57
2016-09-26T09:40:43.665Z,17.64
2016-09-26T09:41:43.661Z,17.7
2016-09-26T09:42:43.644Z,17.7
2016-09-26T09:43:43.637Z,17.81
2016-09-26T09:44:43.945Z,17.76
2016-09-26T09:45:43.617Z,17.73
2016-09-26T09:46:43.619Z,17.88
2016-09-26T09:47:43.602Z,17.81
2016-09-26T09:48:43.907Z,17.85
2016-09-26T09:49:43.587Z,17.87
2016-09-26T09:50:43.578Z,17.87
2016-09-26T09:51:43.565Z,17.92
2016-09-26T09:52:43.574Z,17.89
2016-09-26T09:53:43.601Z,17.88
2016-09-26T09:54:43.539Z,17.92
2016-09-26T09:55:43.530Z,17.92
2016-09-26T09:56:43.521Z,17.85
2016-09-26T09:57:43.519Z,17.95
2016-09-26T09:58:43.513Z,18.03
2016-09-26T09:59:43.493Z,18.06
2016-09-26T10:00:43.490Z,18.09
2016-09-26T10:01:43.797Z,18.09
2016-09-26T10:02:43.675Z,18.18
2016-09-26T10:03:43.467Z,18.18
2016-09-26T10:04:43.458Z,18.27
2016-09-26T10:05:43.444Z,18.36
2016-09-26T10:06:43.441Z,18.34
2016-09-26T10:07:43.428Z,18.4
2016-09-26T10:08:43.729Z,18.46
2016-09-26T10:09:43.411Z,18.52
2016-09-26T10:10:43.402Z,18.64
2016-09-26T10:11:43.704Z,18.67
2016-09-26T10:12:43.388Z,18.77
2016-09-26T10:13:43.381Z,18.83
2016-09-26T10:14:43.373Z,18.8
2016-09-26T10:15:43.366Z,18.9
2016-09-26T10:16:43.355Z,18.91
2016-09-26T10:17:43.347Z,19.02
2016-09-26T10:18:43.343Z,19.02
2016-09-26T10:19:43.644Z,19.13
2016-09-26T10:20:43.647Z,19.17
2016-09-26T10:21:43.313Z,19.23
2016-09-26T10:22:43.308Z,19.29
2016-09-26T10:23:43.304Z,19.33
2016-09-26T10:24:43.291Z,19.42
2016-09-26T10:25:43.292Z,19.58
2016-09-26T10:26:43.280Z,19.6
2016-09-26T10:27:43.270Z,19.65
2016-09-26T10:28:43.576Z,19.68
2016-09-26T10:29:43.572Z,19.66
2016-09-26T10:30:43.262Z,19.63
2016-09-26T10:31:43.558Z,19.7
2016-09-26T10:32:43.550Z,19.73
2016-09-26T10:33:43.226Z,19.7
2016-09-26T10:34:43.230Z,19.79
2016-09-26T10:35:43.222Z,19.87
2016-09-26T10:36:43.204Z,19.9
2016-09-26T10:37:43.204Z,19.93
2016-09-26T10:38:43.199Z,19.94
2016-09-26T10:39:43.183Z,19.93
2016-09-26T10:40:43.491Z,19.91
2016-09-26T10:41:43.482Z,19.9
2016-09-26T10:42:43.166Z,19.87
2016-09-26T10:43:43.163Z,19.95
2016-09-26T10:44:43.358Z,19.94
2016-09-26T10:45:43.145Z,19.95
2016-09-26T10:46:43.140Z,19.93
2016-09-26T10:47:43.134Z,19.93
2016-09-26T10:48:43.129Z,19.97
2016-09-26T10:49:43.117Z,20.09
2016-09-26T10:50:43.109Z,20.23
2016-09-26T10:51:43.109Z,20.3
2016-09-26T10:52:43.101Z,20.3
2016-09-26T10:53:43.090Z,20.28
2016-09-26T10:54:43.099Z,20.28
2016-09-26T10:55:43.077Z,20.31
2016-09-26T10:56:43.072Z,20.42
2016-09-26T10:57:43.066Z,20.42
2016-09-26T10:58:43.379Z,20.38
2016-09-26T10:59:43.061Z,20.39
2016-09-26T11:00:43.048Z,20.35
2016-09-26T11:01:43.042Z,20.38
2016-09-26T11:02:43.037Z,20.41
2016-09-26T11:03:43.347Z,20.46
2016-09-26T11:04:43.338Z,20.46
2016-09-26T11:05:43.017Z,20.58
2016-09-26T11:06:43.010Z,20.59
2016-09-26T11:07:43.005Z,20.62
2016-09-26T11:08:43.002Z,20.53
2016-09-26T11:09:42.991Z,20.47
2016-09-26T11:10:43.307Z,20.43
2016-09-26T11:11:43.328Z,20.42
2016-09-26T11:12:42.981Z,20.43
2016-09-26T11:13:42.965Z,20.42
2016-09-26T11:14:43.282Z,20.47
2016-09-26T11:15:43.263Z,20.43
2016-09-26T11:16:42.945Z,20.49
2016-09-26T11:17:43.256Z,20.54
2016-09-26T11:18:42.933Z,20.58
2016-09-26T11:19:42.925Z,20.68
2016-09-26T11:20:42.920Z,20.72
2016-09-26T11:21:42.916Z,20.91
2016-09-26T11:22:43.220Z,20.93
2016-09-26T11:23:42.907Z,21.08
2016-09-26T11:24:42.903Z,21.2
2016-09-26T11:25:42.901Z,21.26
2016-09-26T11:26:42.881Z,21.38
2016-09-26T11:27:42.881Z,21.64
2016-09-26T11:28:42.876Z,21.98
2016-09-26T11:29:42.862Z,22.2
2016-09-26T11:30:42.861Z,22.47
2016-09-26T11:31:42.859Z,22.53
2016-09-26T11:32:42.850Z,22.57
2016-09-26T11:33:42.853Z,22.59
2016-09-26T11:34:42.853Z,22.72
2016-09-26T11:35:42.848Z,22.83
2016-09-26T11:36:42.834Z,22.82
2016-09-26T11:37:42.831Z,22.89
2016-09-26T11:38:42.828Z,22.94
2016-09-26T11:39:42.824Z,22.84
2016-09-26T11:40:43.142Z,22.75
2016-09-26T11:41:42.813Z,22.68
2016-09-26T11:42:42.819Z,22.65
2016-09-26T11:43:42.819Z,22.54
2016-09-26T11:44:42.811Z,22.64
2016-09-26T11:45:42.795Z,22.72
2016-09-26T11:46:42.792Z,22.57
2016-09-26T11:47:42.811Z,22.65
2016-09-26T11:48:42.789Z,22.62
2016-09-26T11:49:42.793Z,22.84
2016-09-26T11:50:42.779Z,23.05
2016-09-26T11:51:43.091Z,23.24
2016-09-26T11:52:43.097Z,23.55
2016-09-26T11:53:42.772Z,23.34
2016-09-26T11:54:42.762Z,23.29
2016-09-26T11:55:43.095Z,23.14
2016-09-26T11:56:42.758Z,22.94
2016-09-26T11:57:42.958Z,22.84
2016-09-26T11:58:42.759Z,22.68
2016-09-26T11:59:42.749Z,22.46
2016-09-26T12:00:42.746Z,22.32
2016-09-26T12:01:42.744Z,22.23
2016-09-26T12:02:42.735Z,22.22
2016-09-26T12:03:42.753Z,22.12
2016-09-26T12:04:42.728Z,22.1
2016-09-26T12:05:42.725Z,22.09
2016-09-26T12:06:42.741Z,21.94
2016-09-26T12:07:43.039Z,21.99
2016-09-26T12:08:42.720Z,21.92
2016-09-26T12:09:42.720Z,21.83
2016-09-26T12:10:43.034Z,21.85
2016-09-26T12:11:43.021Z,21.79
2016-09-26T12:12:42.709Z,21.72
2016-09-26T12:13:42.706Z,21.78
2016-09-26T12:14:42.693Z,21.78
2016-09-26T12:15:43.329Z,21.92
2016-09-26T12:16:42.683Z,21.74
2016-09-26T12:17:42.683Z,21.63
2016-09-26T12:18:42.680Z,21.76
2016-09-26T12:19:42.677Z,21.82
2016-09-26T12:20:42.675Z,22.34
2016-09-26T12:21:42.660Z,22.92
2016-09-26T12:22:42.975Z,23.53
2016-09-26T12:23:42.694Z,24.05
2016-09-26T12:24:42.995Z,24.08
2016-09-26T12:25:42.649Z,24.04
2016-09-26T12:26:42.965Z,24.14
2016-09-26T12:27:42.953Z,24.17
2016-09-26T12:28:42.953Z,24.8
2016-09-26T12:29:42.639Z,25.17
2016-09-26T12:30:43.140Z,25.65
2016-09-26T12:31:42.625Z,26.12
2016-09-26T12:32:42.630Z,26.43
2016-09-26T12:33:42.625Z,26.61
2016-09-26T12:34:43.255Z,27.01
2016-09-26T12:35:42.638Z,27.32
2016-09-26T12:36:42.929Z,27.73
2016-09-26T12:37:42.931Z,27.92
2016-09-26T12:38:42.612Z,28.17
2016-09-26T12:39:42.613Z,28.36
2016-09-26T12:40:42.922Z,28.32
2016-09-26T12:41:42.610Z,28.43
2016-09-26T12:42:42.612Z,28.7
2016-09-26T12:43:42.611Z,28.4
2016-09-26T12:44:43.125Z,28.33
2016-09-26T12:45:42.925Z,27.95
2016-09-26T12:46:42.606Z,27.95
2016-09-26T12:47:42.612Z,28.32
2016-09-26T12:48:42.611Z,28.36
2016-09-26T12:49:42.609Z,27.8
2016-09-26T12:50:42.924Z,27.88
2016-09-26T12:51:42.812Z,27.99
2016-09-26T12:52:42.625Z,28.21
2016-09-26T12:53:42.618Z,28.43
2016-09-26T12:54:42.981Z,28.75
2016-09-26T12:55:42.616Z,28.93